Station SXXA2 - Saxman Landing, AK Image indicating link to RSS feed of recent meteorological observations for station SXXA2


Conditions at SXXA2 as of
(7:33 pm AKDT on 04/14/2024)
0333 GMT on 04/15/2024:
     

Click on the graph icon in the table below to see a time series plot of the last five days of that observation.

5-day plot - Wind Direction Wind Direction (WDIR):ENE ( 60 deg true )
5-day plot - Wind Speed Wind Speed (WSPD): 2 kts
5-day plot - Wind Gust Wind Gust (GST): 4 kts
5-day plot - Air Temperature Air Temperature (ATMP): 38.5 °F
5-day plot - Dew Point Dew Point (DEWP): 34.3 °F
5-day plot - Wind Speed at 10 Meters Wind Speed at 10 meters (WSPD10M): 2 kts
5-day plot - Wind Speed at 20 Meters Wind Speed at 20 meters (WSPD20M): 2 kts
5-day plot -  Wind Speed, Wind Gust and Atmospheric Pressure Combined plot of Wind Speed, Gust, and Air Pressure
Previous observations
TIME
(AKDT)
5-day plot - Wind Direction
WDIR
 
5-day plot - Wind Speed
WSPD
kts
5-day plot - Wind Gust
GST
kts
5-day plot - Wave Height
WVHT
ft
5-day plot - Dominant Wave Period
DPD
sec
5-day plot - Average Wave Period
APD
sec
5-day plot - Mean Wave Direction
MWD
 
5-day plot - Atmospheric Pressure
PRES
in
5-day plot - Pressure Tendency
PTDY
in
5-day plot - Air Temperature
ATMP
°F
5-day plot - Water Temperature
WTMP
°F
5-day plot - Dew Point
DEWP
°F
5-day plot - Salinity
SAL
psu
5-day plot - Visibility
VIS
nmi
5-day plot - Tide (above MLLW)
TIDE
ft
2024-04-14 07:23 pmWNW 2 4------ 38.1- 34.3---
2024-04-14 07:13 pmWNW 3 4------ 38.1- 34.3---
2024-04-14 07:03 pmNNE 2 4------ 37.9- 34.3---
2024-04-14 06:53 pmENE 2 4------ 37.9- 34.2---
2024-04-14 06:43 pm E 2 4------ 37.6- 33.8---
2024-04-14 06:33 pmENE 3 7------ 37.6- 33.6---
2024-04-14 06:23 pmENE 4 6------ 38.1- 33.6---
2024-04-14 06:13 pmNNE 3 8------ 38.3- 33.3---
2024-04-14 06:03 pm N 5 12------ 38.8- 33.6---
2024-04-14 05:53 pmNNW 10 17------ 39.6- 33.1---
2024-04-14 05:43 pm NW 10 18------ 41.0- 33.6---
2024-04-14 05:33 pm SW 7 11------ 41.7- 33.3---
2024-04-14 05:23 pmSSW 7 11------ 41.9- 33.3---
2024-04-14 05:13 pmSSW 9 14------ 42.1- 33.1---
2024-04-14 05:03 pm S 7 10------ 42.4- 33.1---
2024-04-14 04:53 pmSSW 6 10------ 42.3- 32.5---
2024-04-14 04:43 pm S 7 10------ 41.9- 33.4---
2024-04-14 04:33 pm S 6 10------ 41.9- 33.8---
2024-04-14 04:23 pm S 7 12------ 41.7- 34.7---
2024-04-14 04:13 pmSSW 6 12------ 41.9- 34.9---
2024-04-14 03:53 pm S 8 13------ 42.1- 34.7---
2024-04-14 03:43 pmSSW 9 16------ 41.7- 34.5---
2024-04-14 03:33 pmSSW 9 16------ 41.7- 34.7---
2024-04-14 03:23 pmSSW 9 17------ 42.1- 34.5---
2024-04-14 03:13 pmSSW 10 17------ 42.3- 34.3---
2024-04-14 03:03 pmSSW 9 14------ 42.1- 34.5---
2024-04-14 02:53 pmSSW 9 16------ 41.9- 34.5---
2024-04-14 02:43 pmSSW 10 16------ 41.7- 34.2---
2024-04-14 02:33 pmSSW 11 16------ 41.4- 33.6---
2024-04-14 02:23 pmSSW 11 18------ 41.5- 33.4---
2024-04-14 02:13 pmSSW 9 14------ 41.7- 33.6---
2024-04-14 02:03 pmSSW 9 17------ 42.1- 34.5---
2024-04-14 01:53 pm S 10 17------ 42.4- 34.7---
2024-04-14 01:43 pmSSW 7 15------ 42.6- 34.5---
2024-04-14 01:33 pmSSW 6 14------ 42.3- 34.5---
2024-04-14 01:23 pmSSW 7 12------ 41.7- 34.7---
2024-04-14 01:13 pmSSW 8 15------ 41.7- 34.5---
2024-04-14 01:03 pm SW 8 14------ 41.7- 34.2---
2024-04-14 12:53 pm SW 8 13------ 41.4- 34.0---
2024-04-14 12:43 pmSSW 7 15------ 41.2- 33.8---
2024-04-14 12:33 pmSSW 8 14------ 41.2- 33.6---
2024-04-14 12:23 pm S 8 13------ 41.2- 34.0---
2024-04-14 12:13 pm S 8 11------ 41.0- 34.2---
2024-04-14 12:03 pm S 8 13------ 40.8- 33.8---
2024-04-14 11:53 am S 10 15------ 41.0- 34.3---
2024-04-14 11:43 am S 8 13------ 40.8- 34.0---
2024-04-14 11:33 am S 9 13------ 41.0- 34.3---
2024-04-14 11:23 amSSW 7 12------ 40.8- 34.3---
2024-04-14 11:13 am S 7 11------ 40.5- 34.3---
2024-04-14 11:03 amSSW 7 14------ 40.3- 34.5---
2024-04-14 10:53 amSSW 6 12------ 40.1- 34.7---
2024-04-14 10:43 am S 5 9------ 39.9- 34.5---
2024-04-14 10:33 am SE 4 7------ 39.2- 34.5---
2024-04-14 10:23 am E 4 7------ 39.4- 34.7---
2024-04-14 10:13 am S 2 4------ 39.4- 34.3---
2024-04-14 10:03 am NW 2 6------ 39.2- 33.8---
2024-04-14 09:53 am SW 3 7------ 39.4- 34.0---
2024-04-14 09:43 amSSW 3 9------ 39.0- 33.3---
2024-04-14 09:33 am S 5 9------ 39.2- 33.4---
2024-04-14 09:23 am S 8 10------ 39.2- 33.3---
2024-04-14 09:13 am S 6 9------ 39.4- 33.8---
2024-04-14 09:03 am S 7 10------ 39.4- 34.0---
2024-04-14 08:53 am S 10 14------ 39.4- 33.8---
2024-04-14 08:43 am S 7 13------ 39.9- 34.5---
2024-04-14 08:33 amSSE 3 6------ 39.6- 34.7---
2024-04-14 08:23 am E 3 5------ 39.6- 34.5---
2024-04-14 08:13 am E 5 7------ 39.2- 34.0---
2024-04-14 08:03 am E 5 7------ 39.0- 34.2---
2024-04-14 07:53 am E 4 5------ 39.4- 34.0---
2024-04-14 07:43 am S 5 8------ 39.6- 32.7---
2024-04-14 07:33 amSSW 7 13------ 39.2- 33.4---
2024-04-14 07:23 amSSW 5 12------ 39.9- 34.0---
2024-04-14 07:13 am E 2 4------ 39.9- 34.3---
2024-04-14 07:03 amSSE 2 3------ 39.9- 34.2---
2024-04-14 06:53 am E 3 4------ 39.9- 33.8---
2024-04-14 06:43 am E 2 5------ 39.9- 33.8---
2024-04-14 06:33 am E 4 7------ 39.7- 33.8---
2024-04-14 06:23 am E 5 8------ 39.6- 33.8---
2024-04-14 06:13 am E 4 9------ 39.2- 34.0---
2024-04-14 06:03 am E 3 6------ 38.8- 34.3---
2024-04-14 05:53 am E 5 7------ 38.8- 34.3---
2024-04-14 05:43 am E 4 7------ 38.8- 34.3---
2024-04-14 05:33 am E 4 6------ 38.8- 34.2---
2024-04-14 05:23 am E 5 8------ 38.7- 34.0---
2024-04-14 05:13 am E 5 7------ 38.5- 33.4---
2024-04-14 05:03 am E 7 13------ 38.5- 33.3---
2024-04-14 04:53 am SE 10 18------ 39.0- 33.8---
2024-04-14 04:43 am E 4 15------ 39.2- 35.1---
2024-04-14 04:33 amENE 3 5------ 39.4- 35.1---
2024-04-14 04:23 amENE 3 5------ 39.2- 35.1---
2024-04-14 04:13 amENE 2 4------ 39.4- 35.2---
2024-04-14 04:03 am NE 1 3------ 39.4- 35.2---
2024-04-14 03:53 amENE 3 5------ 39.6- 35.1---
2024-04-14 03:43 amENE 3 5------ 39.4- 35.1---
2024-04-14 03:33 amENE 3 4------ 39.7- 35.2---
2024-04-14 03:23 amENE 4 7------ 39.9- 35.1---
2024-04-14 03:13 am E 4 6------ 40.1- 35.1---
2024-04-14 03:03 am E 4 6------ 40.1- 35.1---
2024-04-14 02:53 amENE 4 5------ 40.1- 35.1---
2024-04-14 02:43 amENE 3 5------ 40.1- 35.1---
2024-04-14 02:33 amENE 2 4------ 40.1- 35.1---
2024-04-14 02:23 amENE 3 5------ 40.1- 35.1---
2024-04-14 02:13 amENE 3 6------ 39.7- 35.1---
2024-04-14 02:03 amENE 4 5------ 39.6- 34.9---
2024-04-14 01:53 amENE 2 4------ 39.6- 35.2---
2024-04-14 01:43 am E 2 4------ 39.9- 35.8---
2024-04-14 01:33 amENE 1 3------ 40.1- 35.6---
2024-04-14 01:23 amENE 3 6------ 40.5- 35.4---
2024-04-14 01:13 amENE 4 5------ 40.3- 35.4---
2024-04-14 01:03 amENE 3 4------ 39.7- 35.6---
2024-04-14 12:53 amENE 2 4------ 39.7- 35.8---
2024-04-14 12:43 am E 1 3------ 39.9- 35.8---
2024-04-14 12:33 am E 2 4------ 39.7- 36.0---
2024-04-14 12:23 amENE 1 3------ 39.7- 36.1---
2024-04-14 12:14 am E 1 4------ 39.7- 36.1---
2024-04-14 12:03 am NE 2 3------ 39.9- 36.1---
2024-04-13 11:53 pm- 0 1------ 40.1- 36.3---
2024-04-13 11:43 pm- 0 2------ 40.1- 36.3---
2024-04-13 11:33 pm N 2 3------ 40.1- 36.3---
2024-04-13 11:23 pm N 2 3------ 40.1- 36.3---
2024-04-13 11:13 pm NE 2 3------ 39.9- 36.0---
2024-04-13 11:03 pmENE 1 3------ 39.7- 36.0---
2024-04-13 10:53 pm NE 2 3------ 39.7- 36.0---
2024-04-13 10:43 pm E 1 3------ 39.7- 36.0---
2024-04-13 10:33 pmENE 2 3------ 39.6- 35.6---
2024-04-13 10:23 pm N 2 3------ 39.7- 35.6---
2024-04-13 10:13 pm N 2 3------ 39.7- 35.2---
2024-04-13 10:03 pm NE 2 3------ 39.7- 35.2---
2024-04-13 09:53 pm N 2 4------ 39.7- 35.1---
2024-04-13 09:43 pm N 2 4------ 39.6- 35.2---
2024-04-13 09:33 pm NE 2 5------ 39.4- 35.1---
2024-04-13 09:23 pmNNE 2 5------ 39.4- 35.2---
2024-04-13 09:13 pmNNE 2 4------ 39.6- 35.4---
2024-04-13 09:03 pm NE 2 5------ 39.4- 35.2---
2024-04-13 08:53 pmENE 3 5------ 39.4- 35.2---
2024-04-13 08:43 pmENE 3 4------ 39.7- 35.2---
2024-04-13 08:33 pmNNE 2 3------ 40.1- 35.4---
2024-04-13 08:23 pm NE 1 3------ 40.1- 35.1---
2024-04-13 08:13 pm N 3 6------ 39.9- 35.1---
2024-04-13 08:03 pmENE 5 7------ 39.7- 34.5---
2024-04-13 07:53 pmENE 6 9------ 39.9- 34.5---
2024-04-13 07:43 pm E 3 6------ 40.3- 34.3---
2024-04-13 07:33 pmENE 4 7------ 40.5- 34.0---
2024-04-13 07:23 pmENE 5 10------ 40.1- 34.0---
2024-04-13 07:13 pmENE 4 9------ 40.1- 34.3---
2024-04-13 07:03 pmENE 4 8------ 40.6- 34.9---
2024-04-13 06:53 pm NW 6 10------ 41.2- 34.5---